Time;durP1;ratioP1;P1;durP2;ratioP2;P2;SDS_P1;SDS_P2;PMS_P1;PMS_P2;Temp;Humidity;BMP_temperature;BMP_pressure;BME280_temperature;BME280_humidity;BME280_pressure;Samples;Min_cycle;Max_cycle;Signal;HPM_P1;HPM_P2
2023/03/24 00:02:05;;;;;;;3.60;1.13;;;11.10;99.90;;;;;;5053372;28;20036;-72
2023/03/24 00:04:32;;;;;;;3.45;1.15;;;11.10;99.90;;;;;;5102494;27;20036;-72
2023/03/24 00:07:00;;;;;;;5.15;1.20;;;11.10;99.90;;;;;;5068557;28;20407;-72
2023/03/24 00:09:30;;;;;;;2.65;1.30;;;11.10;99.90;;;;;;5085020;28;20062;-72
2023/03/24 00:11:56;;;;;;;4.38;1.30;;;11.10;99.90;;;;;;5069883;28;20107;-72
2023/03/24 00:14:23;;;;;;;3.83;1.40;;;11.00;99.90;;;;;;5101970;27;20048;-72
2023/03/24 00:16:49;;;;;;;3.03;1.27;;;11.00;99.90;;;;;;5067716;28;20474;-72
2023/03/24 00:19:17;;;;;;;2.75;1.25;;;11.10;99.90;;;;;;5072087;28;20043;-72
2023/03/24 00:21:43;;;;;;;4.88;1.58;;;11.00;99.90;;;;;;5073076;28;20503;-72
2023/03/24 00:24:10;;;;;;;2.65;1.20;;;11.10;99.90;;;;;;5069293;28;20033;-72
2023/03/24 00:26:38;;;;;;;4.47;1.40;;;11.00;99.90;;;;;;5072183;28;20037;-72
2023/03/24 00:29:06;;;;;;;5.13;1.48;;;11.00;99.90;;;;;;5072616;28;20052;-72
2023/03/24 00:31:32;;;;;;;2.38;1.23;;;11.10;99.90;;;;;;5101553;27;20037;-72
2023/03/24 00:33:58;;;;;;;2.70;1.25;;;11.00;99.90;;;;;;5062864;28;20063;-72
2023/03/24 00:36:27;;;;;;;2.42;1.27;;;11.00;99.90;;;;;;5070283;28;20032;-72
2023/03/24 00:38:54;;;;;;;2.83;1.10;;;11.00;99.90;;;;;;5059347;28;20158;-72
2023/03/24 00:41:20;;;;;;;3.50;1.33;;;11.10;99.90;;;;;;5069466;28;20040;-72
2023/03/24 00:43:47;;;;;;;4.65;1.30;;;11.00;99.90;;;;;;5068711;28;20509;-72
2023/03/24 00:46:26;;;;;;;4.45;1.33;;;11.00;99.90;;;;;;5069777;28;20127;-72
2023/03/24 00:49:04;;;;;;;2.03;1.15;;;11.00;99.90;;;;;;5056816;28;20126;-72
2023/03/24 00:51:33;;;;;;;4.85;1.48;;;11.00;99.90;;;;;;5072590;28;20032;-72
2023/03/24 00:54:00;;;;;;;2.15;1.15;;;11.00;99.90;;;;;;5054828;28;20547;-72
2023/03/24 00:56:30;;;;;;;2.17;1.00;;;11.00;99.90;;;;;;5087989;27;20081;-72
2023/03/24 00:59:01;;;;;;;3.70;1.25;;;11.00;99.90;;;;;;5069777;28;20127;-72
2023/03/24 01:01:28;;;;;;;4.85;1.40;;;11.00;99.90;;;;;;5088801;28;20035;-72
2023/03/24 01:03:55;;;;;;;4.60;1.48;;;11.00;99.90;;;;;;5068062;28;20111;-72
2023/03/24 01:06:22;;;;;;;3.00;1.10;;;11.00;99.90;;;;;;5103501;27;20350;-72
2023/03/24 01:08:52;;;;;;;3.70;1.23;;;11.00;99.90;;;;;;5071832;28;20521;-72
2023/03/24 01:11:21;;;;;;;2.92;1.20;;;11.00;99.90;;;;;;5055600;28;20390;-72
2023/03/24 01:13:47;;;;;;;3.17;1.13;;;11.00;99.90;;;;;;5064479;28;20053;-72
2023/03/24 01:16:13;;;;;;;2.92;1.23;;;11.00;99.90;;;;;;5068432;28;20071;-72
2023/03/24 01:18:39;;;;;;;4.65;1.27;;;11.00;99.90;;;;;;5068377;28;20426;-72
2023/03/24 01:21:07;;;;;;;3.20;1.10;;;11.00;99.90;;;;;;5072009;28;20068;-72
2023/03/24 01:23:33;;;;;;;2.25;1.00;;;11.00;99.90;;;;;;5070765;28;20039;-72
2023/03/24 01:26:03;;;;;;;3.78;1.17;;;11.00;99.90;;;;;;5074816;28;20403;-72
2023/03/24 01:28:29;;;;;;;2.90;1.00;;;11.00;99.90;;;;;;5107482;27;20035;-72
2023/03/24 01:30:55;;;;;;;4.90;1.70;;;11.10;99.90;;;;;;5054491;28;20471;-72
2023/03/24 01:33:21;;;;;;;1.50;0.90;;;11.00;99.90;;;;;;5046998;28;20052;-72
2023/03/24 01:35:47;;;;;;;2.83;1.10;;;11.00;99.90;;;;;;5066535;28;20951;-72
2023/03/24 01:38:14;;;;;;;2.53;1.17;;;11.00;99.90;;;;;;5088302;28;20049;-72
2023/03/24 01:40:43;;;;;;;1.77;1.00;;;11.00;99.90;;;;;;5066126;28;20123;-72
2023/03/24 01:43:30;;;;;;;3.90;1.30;;;11.00;99.90;;;;;;5064815;28;20079;-72
2023/03/24 01:46:16;;;;;;;2.45;1.00;;;11.00;99.90;;;;;;5106899;28;20048;-72
2023/03/24 01:48:53;;;;;;;2.80;1.15;;;11.00;99.90;;;;;;5065459;28;20043;-72
2023/03/24 01:51:34;;;;;;;3.17;1.27;;;11.00;99.90;;;;;;5069868;28;20075;-72
2023/03/24 01:54:22;;;;;;;3.65;1.30;;;11.00;99.90;;;;;;5067821;28;20098;-72
2023/03/24 01:57:05;;;;;;;3.17;1.17;;;11.00;99.90;;;;;;5054576;28;20494;-72
2023/03/24 01:59:35;;;;;;;1.98;0.93;;;11.00;99.90;;;;;;5055639;28;20051;-72
2023/03/24 02:02:03;;;;;;;3.28;1.30;;;11.00;99.90;;;;;;5073268;28;20052;-72
2023/03/24 02:04:37;;;;;;;2.20;1.15;;;11.00;99.90;;;;;;5066110;28;20449;-72
2023/03/24 02:07:17;;;;;;;3.22;1.40;;;11.10;99.90;;;;;;5074362;28;20063;-72
2023/03/24 02:09:43;;;;;;;2.03;1.23;;;11.00;99.90;;;;;;5072579;28;20482;-72
2023/03/24 02:12:09;;;;;;;2.40;1.30;;;11.00;99.90;;;;;;5072548;28;20485;-72
2023/03/24 02:14:35;;;;;;;2.58;1.67;;;11.10;99.90;;;;;;5071412;28;20582;-72
2023/03/24 02:17:15;;;;;;;3.58;1.13;;;11.10;99.90;;;;;;5065751;28;20044;-72
2023/03/24 02:19:40;;;;;;;2.83;1.40;;;11.10;99.90;;;;;;5071434;28;20428;-72
2023/03/24 02:22:40;;;;;;;2.28;0.90;;;11.10;99.90;;;;;;5065023;28;20458;-72
2023/03/24 02:25:15;;;;;;;3.70;1.50;;;11.10;99.90;;;;;;5070377;28;20044;-72
2023/03/24 02:28:17;;;;;;;2.92;1.40;;;11.10;99.90;;;;;;5072111;28;20135;-72
2023/03/24 02:31:00;;;;;;;2.45;1.33;;;11.10;99.90;;;;;;5075732;28;20565;-72
2023/03/24 02:33:53;;;;;;;3.15;1.10;;;11.20;99.90;;;;;;5067148;28;20486;-72
2023/03/24 02:36:36;;;;;;;3.33;1.42;;;11.10;99.90;;;;;;5070267;28;20044;-72
2023/03/24 02:39:29;;;;;;;3.10;1.30;;;11.20;99.90;;;;;;5096072;28;20028;-72
2023/03/24 02:42:13;;;;;;;2.35;1.48;;;11.20;99.90;;;;;;5083062;28;20115;-72
2023/03/24 02:45:04;;;;;;;2.33;1.08;;;11.20;99.90;;;;;;5070352;28;20389;-72
2023/03/24 02:47:56;;;;;;;2.78;1.40;;;11.10;99.90;;;;;;5093133;28;20096;-72
2023/03/24 02:50:38;;;;;;;2.13;1.35;;;11.20;99.90;;;;;;5072150;28;20055;-72
2023/03/24 02:53:28;;;;;;;2.60;1.33;;;11.20;99.90;;;;;;5074036;28;20068;-72
2023/03/24 02:56:32;;;;;;;5.18;2.15;;;11.20;99.90;;;;;;5057507;28;20051;-71
2023/03/24 02:59:05;;;;;;;2.13;1.10;;;11.20;99.90;;;;;;5102189;27;20037;-72
2023/03/24 03:01:40;;;;;;;3.30;1.52;;;11.20;99.90;;;;;;5070918;28;20032;-72
2023/03/24 03:04:18;;;;;;;3.50;1.45;;;11.20;99.90;;;;;;5074143;28;20477;-72
2023/03/24 03:06:51;;;;;;;2.88;1.50;;;11.20;99.90;;;;;;5107517;27;20425;-72
2023/03/24 03:09:19;;;;;;;2.20;1.17;;;11.20;99.90;;;;;;5072979;28;20032;-72
2023/03/24 03:11:49;;;;;;;2.83;1.60;;;11.30;99.90;;;;;;5074060;28;20082;-72
2023/03/24 03:14:29;;;;;;;5.47;1.33;;;11.20;99.90;;;;;;5071719;28;20473;-72
2023/03/24 03:17:08;;;;;;;3.03;1.40;;;11.30;99.90;;;;;;5101365;27;20052;-71
2023/03/24 03:19:40;;;;;;;2.90;1.60;;;11.30;99.90;;;;;;5050356;28;20222;-72
2023/03/24 03:22:14;;;;;;;4.20;1.60;;;11.20;99.90;;;;;;5052128;28;20032;-72
2023/03/24 03:24:42;;;;;;;3.13;1.67;;;11.30;99.90;;;;;;5105439;27;20043;-72
2023/03/24 03:27:17;;;;;;;3.60;1.77;;;11.30;99.90;;;;;;5076049;28;20131;-72
2023/03/24 03:29:46;;;;;;;3.38;1.58;;;11.30;99.90;;;;;;5077114;28;20067;-72
2023/03/24 03:32:20;;;;;;;3.85;1.45;;;11.30;99.90;;;;;;5073713;28;20273;-72
2023/03/24 03:35:08;;;;;;;2.88;1.83;;;11.30;99.90;;;;;;5092256;27;21879;-71
2023/03/24 03:37:58;;;;;;;3.28;1.40;;;11.30;99.90;;;;;;5073227;28;20048;-72
2023/03/24 03:40:31;;;;;;;2.63;1.35;;;11.30;99.90;;;;;;5103386;27;20052;-72
2023/03/24 03:42:57;;;;;;;3.60;1.70;;;11.40;99.90;;;;;;5090369;28;20036;-72
2023/03/24 03:45:23;;;;;;;4.32;1.67;;;11.40;99.90;;;;;;5075150;28;20405;-72
2023/03/24 03:47:49;;;;;;;2.45;1.05;;;11.40;99.90;;;;;;5071664;28;20107;-72
2023/03/24 03:50:15;;;;;;;2.97;1.20;;;11.40;99.90;;;;;;5066974;28;20044;-72
2023/03/24 03:52:43;;;;;;;2.55;0.98;;;11.40;99.90;;;;;;5072032;28;20032;-72
2023/03/24 03:55:10;;;;;;;2.10;1.10;;;11.40;99.90;;;;;;5054900;28;20508;-72
2023/03/24 03:57:36;;;;;;;2.45;0.93;;;11.30;99.90;;;;;;5079033;28;20036;-72
2023/03/24 04:00:10;;;;;;;2.45;1.17;;;11.30;99.90;;;;;;5071312;28;20096;-72
2023/03/24 04:02:51;;;;;;;3.25;1.00;;;11.20;99.90;;;;;;5072683;28;20036;-72
2023/03/24 04:05:29;;;;;;;2.80;0.77;;;11.10;99.90;;;;;;5066234;28;20055;-72
2023/03/24 04:08:14;;;;;;;1.98;0.95;;;11.10;99.90;;;;;;5050177;28;20092;-72
2023/03/24 04:10:59;;;;;;;1.58;0.60;;;11.00;99.90;;;;;;5064751;28;20124;-72
2023/03/24 04:13:48;;;;;;;1.40;0.80;;;10.90;99.90;;;;;;5075621;28;20059;-72
2023/03/24 04:16:31;;;;;;;1.77;0.85;;;10.90;99.90;;;;;;5068091;28;20805;-72
2023/03/24 04:19:23;;;;;;;2.03;0.60;;;10.80;99.90;;;;;;5065397;28;20067;-72
2023/03/24 04:22:37;;;;;;;1.88;0.80;;;10.80;99.90;;;;;;5069902;28;20115;-72
2023/03/24 04:25:08;;;;;;;1.08;0.50;;;10.70;99.90;;;;;;5019660;28;20048;-72
2023/03/24 04:28:10;;;;;;;4.78;0.90;;;10.70;99.90;;;;;;5074404;28;20195;-72
2023/03/24 04:30:51;;;;;;;1.70;0.80;;;10.60;99.90;;;;;;5100598;27;20043;-72
2023/03/24 04:33:27;;;;;;;1.95;0.60;;;10.60;99.90;;;;;;5069306;28;20044;-72
2023/03/24 04:36:05;;;;;;;1.77;0.70;;;10.60;99.90;;;;;;5071800;28;20037;-72
2023/03/24 04:38:34;;;;;;;1.33;0.57;;;10.60;99.90;;;;;;5069666;28;20624;-72
2023/03/24 04:41:01;;;;;;;1.77;0.63;;;10.50;99.90;;;;;;5056883;28;20533;-72
2023/03/24 04:43:34;;;;;;;1.90;1.00;;;10.50;99.90;;;;;;5078588;28;20040;-72
2023/03/24 04:46:02;;;;;;;1.73;0.60;;;10.50;99.90;;;;;;5070665;28;20041;-72
2023/03/24 04:48:29;;;;;;;0.82;0.40;;;10.40;99.90;;;;;;5075318;28;20155;-72
2023/03/24 04:50:58;;;;;;;2.30;0.40;;;10.40;99.90;;;;;;5069488;28;20020;-72
2023/03/24 04:53:24;;;;;;;3.42;0.95;;;10.40;99.90;;;;;;5056402;28;20127;-72
2023/03/24 04:56:12;;;;;;;2.38;0.65;;;10.40;99.90;;;;;;5076165;28;20105;-72
2023/03/24 04:58:38;;;;;;;2.33;0.82;;;10.40;99.90;;;;;;5067582;28;20043;-72
2023/03/24 05:01:04;;;;;;;1.85;0.57;;;10.30;99.90;;;;;;5073298;28;20040;-72
2023/03/24 05:03:30;;;;;;;2.70;0.75;;;10.30;99.90;;;;;;5056421;28;20229;-71
2023/03/24 05:05:57;;;;;;;2.45;0.60;;;10.20;99.90;;;;;;5105831;27;20047;-72
2023/03/24 05:08:23;;;;;;;3.13;0.60;;;10.20;99.90;;;;;;5056251;28;20085;-72
2023/03/24 05:10:49;;;;;;;2.78;0.68;;;10.20;99.90;;;;;;5049209;28;20064;-72
2023/03/24 05:13:15;;;;;;;6.95;0.82;;;10.20;99.90;;;;;;5075215;28;20520;-72
2023/03/24 05:15:41;;;;;;;2.60;0.80;;;10.20;99.90;;;;;;5069436;28;20043;-72
2023/03/24 05:18:07;;;;;;;4.45;0.77;;;10.10;99.90;;;;;;5069849;28;20181;-72
2023/03/24 05:20:32;;;;;;;1.58;0.70;;;10.10;99.90;;;;;;5070911;28;20040;-72
2023/03/24 05:22:58;;;;;;;3.83;0.80;;;10.10;99.90;;;;;;5073494;28;20119;-72
2023/03/24 05:25:24;;;;;;;4.55;0.90;;;10.10;99.90;;;;;;5070401;28;20482;-72
2023/03/24 05:27:49;;;;;;;2.78;0.85;;;10.10;99.90;;;;;;5067128;28;20048;-71
2023/03/24 05:30:19;;;;;;;2.55;0.70;;;10.10;99.90;;;;;;5058297;28;20504;-72
2023/03/24 05:32:44;;;;;;;2.80;0.52;;;10.00;99.90;;;;;;5070601;28;20124;-72
2023/03/24 05:35:10;;;;;;;3.17;0.85;;;10.10;99.90;;;;;;5069221;28;20430;-71
2023/03/24 05:37:35;;;;;;;2.92;0.65;;;10.00;99.90;;;;;;5067856;28;20793;-72
2023/03/24 05:40:01;;;;;;;3.33;0.98;;;10.00;99.90;;;;;;5050718;28;20044;-72
2023/03/24 05:42:27;;;;;;;3.33;1.20;;;10.00;99.90;;;;;;5075638;28;20059;-72
2023/03/24 05:44:52;;;;;;;4.18;1.40;;;10.00;99.90;;;;;;5072310;28;20449;-72
2023/03/24 05:47:19;;;;;;;3.58;0.90;;;10.00;99.90;;;;;;5073641;28;20115;-72
2023/03/24 05:49:45;;;;;;;3.55;1.20;;;10.00;99.90;;;;;;5083031;28;20047;-71
2023/03/24 05:52:13;;;;;;;5.38;1.15;;;10.00;99.90;;;;;;5086828;28;20032;-72
2023/03/24 05:54:40;;;;;;;3.17;0.85;;;9.90;99.90;;;;;;5074386;28;20115;-72
2023/03/24 05:57:07;;;;;;;2.08;0.90;;;9.90;99.90;;;;;;5070046;28;20056;-72
2023/03/24 05:59:36;;;;;;;3.22;0.80;;;9.80;99.90;;;;;;5072680;28;20045;-72
2023/03/24 06:02:02;;;;;;;7.10;1.10;;;9.80;99.90;;;;;;5073635;28;20502;-72
2023/03/24 06:04:29;;;;;;;3.63;0.80;;;9.80;99.90;;;;;;5065655;28;20429;-72
2023/03/24 06:06:58;;;;;;;2.30;0.50;;;9.80;99.90;;;;;;5104033;27;20079;-72
2023/03/24 06:09:31;;;;;;;6.30;0.80;;;9.70;99.90;;;;;;5074167;28;20070;-72
2023/03/24 06:11:58;;;;;;;4.38;0.65;;;9.70;99.90;;;;;;5056479;28;20125;-72
2023/03/24 06:14:24;;;;;;;7.93;1.10;;;9.70;99.90;;;;;;5062213;28;20044;-72
2023/03/24 06:16:50;;;;;;;10.85;1.15;;;9.70;99.90;;;;;;5071338;28;20045;-72
2023/03/24 06:19:17;;;;;;;1.83;0.55;;;9.70;99.90;;;;;;5073824;28;20054;-71
2023/03/24 06:21:49;;;;;;;1.63;0.60;;;9.70;99.90;;;;;;5103781;27;20123;-72
2023/03/24 06:24:15;;;;;;;2.00;0.30;;;9.70;99.90;;;;;;5074045;28;20044;-71
2023/03/24 06:26:43;;;;;;;3.40;0.55;;;9.70;99.90;;;;;;5074764;28;20040;-71
2023/03/24 06:29:09;;;;;;;1.50;0.55;;;9.70;99.90;;;;;;5074933;28;20450;-71
2023/03/24 06:31:36;;;;;;;2.35;0.80;;;9.70;99.90;;;;;;5060578;28;20057;-71
2023/03/24 06:34:05;;;;;;;3.63;0.90;;;9.70;99.90;;;;;;5056164;28;20036;-71
2023/03/24 06:36:33;;;;;;;4.38;0.70;;;9.70;99.90;;;;;;5073877;28;20032;-71
2023/03/24 06:39:01;;;;;;;1.33;0.45;;;9.80;99.90;;;;;;5075736;28;20036;-72
2023/03/24 06:41:26;;;;;;;2.63;0.45;;;9.80;99.90;;;;;;5085582;28;20132;-71
2023/03/24 06:43:52;;;;;;;3.17;0.52;;;9.80;99.90;;;;;;5074114;28;20115;-72
2023/03/24 06:46:18;;;;;;;2.60;0.70;;;9.80;99.90;;;;;;5071079;28;20068;-72
2023/03/24 06:48:43;;;;;;;3.13;0.90;;;9.90;99.90;;;;;;5069846;28;20052;-71
2023/03/24 06:51:09;;;;;;;3.20;0.70;;;9.90;99.90;;;;;;5074711;28;20040;-72
2023/03/24 06:53:36;;;;;;;1.33;0.82;;;9.90;99.90;;;;;;5050775;28;20204;-72
2023/03/24 06:56:02;;;;;;;1.77;0.60;;;9.80;99.90;;;;;;5070126;28;20036;-72
2023/03/24 06:58:27;;;;;;;4.55;0.88;;;9.90;99.90;;;;;;5058821;28;20481;-72
2023/03/24 07:00:54;;;;;;;2.92;0.70;;;9.90;99.90;;;;;;5073964;28;20398;-72
2023/03/24 07:03:22;;;;;;;1.75;0.60;;;9.90;99.90;;;;;;5076430;28;20047;-71
2023/03/24 07:05:47;;;;;;;2.90;0.70;;;10.00;99.90;;;;;;5074301;28;20513;-72
2023/03/24 07:08:13;;;;;;;2.30;0.57;;;10.00;99.90;;;;;;5070069;28;20052;-72
2023/03/24 07:10:39;;;;;;;1.10;0.40;;;10.00;99.90;;;;;;5073263;28;20119;-72
2023/03/24 07:13:06;;;;;;;6.53;1.13;;;10.00;99.90;;;;;;5054733;28;20054;-72
2023/03/24 07:15:32;;;;;;;1.13;0.50;;;10.00;99.90;;;;;;5073673;28;20048;-72
2023/03/24 07:17:59;;;;;;;1.00;0.40;;;10.00;99.90;;;;;;5071478;28;20036;-74
2023/03/24 07:20:25;;;;;;;4.95;0.90;;;10.00;99.90;;;;;;5066865;28;20450;-72
2023/03/24 07:22:55;;;;;;;2.17;0.85;;;10.00;99.90;;;;;;5070438;28;20871;-72
2023/03/24 07:25:21;;;;;;;5.28;0.82;;;10.10;99.90;;;;;;5077877;28;20498;-72
2023/03/24 07:27:47;;;;;;;4.63;0.77;;;10.10;99.90;;;;;;5066808;28;20129;-72
2023/03/24 07:30:13;;;;;;;7.25;1.10;;;10.10;99.90;;;;;;5065514;28;20072;-72
2023/03/24 07:32:41;;;;;;;1.95;0.60;;;10.10;99.90;;;;;;5070261;28;20694;-72
2023/03/24 07:35:09;;;;;;;5.53;0.68;;;10.10;99.90;;;;;;5061212;28;20405;-71
2023/03/24 07:37:35;;;;;;;3.05;0.80;;;10.20;99.90;;;;;;5085299;27;20047;-72
2023/03/24 07:40:05;;;;;;;1.95;0.73;;;10.20;99.90;;;;;;5050286;28;20178;-71
2023/03/24 07:42:31;;;;;;;11.13;1.27;;;10.20;99.90;;;;;;5074346;28;20505;-72
2023/03/24 07:44:57;;;;;;;9.45;0.82;;;10.20;99.90;;;;;;5068826;28;20040;-72
2023/03/24 07:47:23;;;;;;;5.78;0.85;;;10.20;99.90;;;;;;5088866;28;20403;-71
2023/03/24 07:49:48;;;;;;;2.85;0.90;;;10.20;99.90;;;;;;5071361;28;20028;-72
2023/03/24 07:52:14;;;;;;;2.80;0.82;;;10.30;99.90;;;;;;5076965;28;21247;-72
2023/03/24 07:54:39;;;;;;;6.28;0.90;;;10.30;99.90;;;;;;5067743;28;20047;-71
2023/03/24 07:57:06;;;;;;;7.55;1.00;;;10.30;99.90;;;;;;5071966;28;20048;-71
2023/03/24 07:59:33;;;;;;;9.68;1.38;;;10.30;99.90;;;;;;5051834;28;20048;-72
2023/03/24 08:01:58;;;;;;;3.03;0.70;;;10.40;99.90;;;;;;5072908;28;20032;-71
2023/03/24 08:04:26;;;;;;;2.70;0.63;;;10.40;99.90;;;;;;5067639;28;20050;-71
2023/03/24 08:06:52;;;;;;;9.60;1.20;;;10.40;99.90;;;;;;5071265;28;20119;-72
2023/03/24 08:09:18;;;;;;;5.70;1.02;;;10.40;99.90;;;;;;5072992;28;20305;-71
2023/03/24 08:11:44;;;;;;;2.80;0.75;;;10.40;99.90;;;;;;5088706;27;20115;-72
2023/03/24 08:14:10;;;;;;;6.68;1.25;;;10.50;99.90;;;;;;5070861;28;20055;-71
2023/03/24 08:16:37;;;;;;;6.07;1.20;;;10.50;99.90;;;;;;5090161;28;20672;-72
2023/03/24 08:19:03;;;;;;;3.90;0.98;;;10.50;99.90;;;;;;5055345;28;20024;-72
2023/03/24 08:21:29;;;;;;;6.68;1.83;;;10.50;99.90;;;;;;5055554;28;20523;-72
2023/03/24 08:23:55;;;;;;;4.45;1.25;;;10.60;99.90;;;;;;5079795;28;20072;-71
2023/03/24 08:26:21;;;;;;;6.68;1.20;;;10.60;99.90;;;;;;5058343;28;20040;-71
2023/03/24 08:28:48;;;;;;;7.97;1.42;;;10.60;99.90;;;;;;5083749;28;20047;-72
2023/03/24 08:31:14;;;;;;;4.25;1.00;;;10.60;99.90;;;;;;5078676;28;20058;-72
2023/03/24 08:33:40;;;;;;;15.93;1.70;;;10.70;99.90;;;;;;5078749;28;20504;-72
2023/03/24 08:36:07;;;;;;;5.60;1.52;;;10.70;99.90;;;;;;5074308;28;20519;-72
2023/03/24 08:38:32;;;;;;;5.65;1.13;;;10.80;99.90;;;;;;5079470;28;20040;-72
2023/03/24 08:41:01;;;;;;;5.28;1.20;;;10.70;99.90;;;;;;5080262;28;20043;-71
2023/03/24 08:43:30;;;;;;;5.55;0.90;;;10.70;99.90;;;;;;5111969;27;20039;-71
2023/03/24 08:46:00;;;;;;;6.05;0.73;;;10.70;99.90;;;;;;5081604;28;20046;-72
2023/03/24 08:48:27;;;;;;;3.63;0.82;;;10.70;99.90;;;;;;5051127;28;20048;-72
2023/03/24 08:50:53;;;;;;;9.32;0.90;;;10.70;99.90;;;;;;5069618;28;20032;-71
2023/03/24 08:53:19;;;;;;;5.47;0.65;;;10.60;99.90;;;;;;5056050;28;20096;-72
2023/03/24 08:55:45;;;;;;;6.20;1.08;;;10.60;99.90;;;;;;5113092;27;20032;-72
2023/03/24 08:58:16;;;;;;;2.53;0.70;;;10.50;99.90;;;;;;5060644;28;20020;-72
2023/03/24 09:00:43;;;;;;;4.00;0.90;;;10.50;99.90;;;;;;5050124;28;20297;-72
2023/03/24 09:03:13;;;;;;;2.00;0.70;;;10.50;99.90;;;;;;5102988;27;20071;-71
2023/03/24 09:05:39;;;;;;;4.68;1.08;;;10.40;99.90;;;;;;5050706;28;20036;-75
2023/03/24 09:08:06;;;;;;;6.63;1.33;;;10.40;99.90;;;;;;5074736;28;20541;-72
2023/03/24 09:10:32;;;;;;;4.53;0.95;;;10.40;99.90;;;;;;5071905;28;20035;-72
2023/03/24 09:12:58;;;;;;;4.32;0.90;;;10.30;99.90;;;;;;5075712;28;20338;-75
2023/03/24 09:15:23;;;;;;;5.93;1.15;;;10.40;99.90;;;;;;5064320;28;20063;-71
2023/03/24 09:17:49;;;;;;;5.43;1.00;;;10.40;99.90;;;;;;5067362;28;20075;-71
2023/03/24 09:20:15;;;;;;;2.88;0.90;;;10.40;99.90;;;;;;5084698;28;20068;-71
2023/03/24 09:22:44;;;;;;;4.95;0.90;;;10.40;99.90;;;;;;5087990;28;20122;-71
2023/03/24 09:25:11;;;;;;;5.80;2.05;;;10.40;99.90;;;;;;5075477;28;20425;-71
2023/03/24 09:27:37;;;;;;;5.07;0.95;;;10.50;99.90;;;;;;5120323;27;20909;-71
2023/03/24 09:30:03;;;;;;;4.15;0.60;;;10.70;99.90;;;;;;5087067;28;20112;-71
2023/03/24 09:32:28;;;;;;;4.75;1.35;;;10.80;99.90;;;;;;5072141;28;20036;-71
2023/03/24 09:34:54;;;;;;;6.38;1.52;;;10.90;99.90;;;;;;5069276;28;20240;-71
2023/03/24 09:37:20;;;;;;;7.38;1.30;;;11.00;99.90;;;;;;5051584;28;20135;-71
2023/03/24 09:39:45;;;;;;;9.70;0.95;;;11.10;99.90;;;;;;5076136;28;20032;-71
2023/03/24 09:42:22;;;;;;;5.32;1.23;;;11.20;99.90;;;;;;5067605;28;20044;-71
2023/03/24 09:45:00;;;;;;;11.73;1.00;;;11.30;99.90;;;;;;5082704;28;20092;-72
2023/03/24 09:47:35;;;;;;;4.53;0.90;;;11.40;99.90;;;;;;5078712;28;20216;-71
2023/03/24 09:50:06;;;;;;;6.45;1.02;;;11.50;99.90;;;;;;5109718;28;20044;-71
2023/03/24 09:52:43;;;;;;;6.68;0.90;;;11.70;99.90;;;;;;5120794;28;20028;-72
2023/03/24 09:55:18;;;;;;;7.10;1.20;;;11.70;99.90;;;;;;5087122;28;20092;-72
2023/03/24 09:57:47;;;;;;;10.00;1.23;;;11.90;99.90;;;;;;5070147;28;20468;-72
2023/03/24 10:00:28;;;;;;;5.57;0.80;;;12.00;99.90;;;;;;5086700;28;20118;-71
2023/03/24 10:03:12;;;;;;;5.10;1.42;;;12.10;99.90;;;;;;5085234;28;20075;-71
2023/03/24 10:05:46;;;;;;;2.38;0.80;;;12.20;99.90;;;;;;5051723;28;20032;-71
2023/03/24 10:08:35;;;;;;;4.22;1.70;;;12.20;99.90;;;;;;5074602;28;20149;-72
2023/03/24 10:11:03;;;;;;;4.97;0.68;;;12.00;99.90;;;;;;5073881;28;20380;-71
2023/03/24 10:13:38;;;;;;;7.78;1.25;;;11.80;99.90;;;;;;5073523;28;20130;-71
2023/03/24 10:16:13;;;;;;;5.00;0.80;;;11.70;99.90;;;;;;5071943;28;20044;-71
2023/03/24 10:18:44;;;;;;;6.18;0.82;;;11.60;99.90;;;;;;5100511;27;20036;-71
2023/03/24 10:21:20;;;;;;;7.68;1.08;;;11.60;99.90;;;;;;5067441;28;20040;-71
2023/03/24 10:24:10;;;;;;;4.40;1.23;;;11.60;99.90;;;;;;5106826;27;20028;-70
2023/03/24 10:26:35;;;;;;;3.97;1.15;;;11.60;99.90;;;;;;5069271;28;20051;-71
2023/03/24 10:29:38;;;;;;;9.88;1.20;;;11.60;99.90;;;;;;5054753;28;20371;-71
2023/03/24 10:32:21;;;;;;;4.13;1.33;;;11.60;99.90;;;;;;5015544;28;20053;-71
2023/03/24 10:34:55;;;;;;;12.02;1.15;;;11.70;99.90;;;;;;5064014;28;20048;-72
2023/03/24 10:37:21;;;;;;;4.85;0.73;;;11.70;99.90;;;;;;5072885;28;20490;-72
2023/03/24 10:39:47;;;;;;;6.32;0.80;;;11.80;99.90;;;;;;5056229;28;20036;-75
2023/03/24 10:42:23;;;;;;;7.53;0.68;;;11.80;99.90;;;;;;5071731;28;20050;-72
2023/03/24 10:44:50;;;;;;;3.67;0.63;;;11.80;99.90;;;;;;5067778;28;20509;-74
2023/03/24 10:47:21;;;;;;;6.15;0.82;;;11.80;99.90;;;;;;5087095;28;20044;-72
2023/03/24 10:50:04;;;;;;;4.05;0.77;;;11.90;99.90;;;;;;5063905;28;20092;-71
2023/03/24 10:52:41;;;;;;;2.47;0.60;;;12.00;99.90;;;;;;5069913;28;20043;-70
2023/03/24 10:55:13;;;;;;;8.35;0.73;;;12.10;99.90;;;;;;5056272;28;20322;-70
2023/03/24 10:57:44;;;;;;;7.05;1.05;;;12.20;99.90;;;;;;5074893;28;20040;-71
2023/03/24 11:00:21;;;;;;;6.63;0.80;;;12.20;99.90;;;;;;5073062;28;20048;-70
2023/03/24 11:02:56;;;;;;;2.72;0.50;;;12.30;99.90;;;;;;5080395;28;20032;-70
2023/03/24 11:05:29;;;;;;;4.37;1.10;;;12.40;99.90;;;;;;5076039;28;20036;-70
2023/03/24 11:08:09;;;;;;;2.17;0.45;;;12.40;99.90;;;;;;5098664;27;20091;-70
2023/03/24 11:10:34;;;;;;;2.03;0.63;;;12.50;99.90;;;;;;5073840;28;20044;-70
2023/03/24 11:13:02;;;;;;;3.70;0.52;;;12.50;99.90;;;;;;5057599;28;20109;-70
2023/03/24 11:15:38;;;;;;;2.95;0.77;;;12.60;99.90;;;;;;5059126;28;20145;-71
2023/03/24 11:18:09;;;;;;;4.15;0.70;;;12.60;99.90;;;;;;5101183;27;20045;-70
2023/03/24 11:20:38;;;;;;;4.82;0.47;;;12.60;99.90;;;;;;5078629;28;20052;-71
2023/03/24 11:23:41;;;;;;;4.00;0.60;;;12.50;99.90;;;;;;5070751;28;20056;-70
2023/03/24 11:26:27;;;;;;;4.25;0.55;;;12.40;99.90;;;;;;5031750;28;20048;-71
2023/03/24 11:28:57;;;;;;;6.40;0.80;;;12.40;99.90;;;;;;5080855;28;20139;-70
2023/03/24 11:31:29;;;;;;;2.35;0.60;;;12.40;99.90;;;;;;5076216;28;20132;-70
2023/03/24 11:34:18;;;;;;;1.38;0.70;;;12.30;99.90;;;;;;5079940;28;20034;-70
2023/03/24 11:36:58;;;;;;;6.63;1.00;;;12.30;99.90;;;;;;5080767;28;20398;-71
2023/03/24 11:39:25;;;;;;;3.63;0.65;;;12.30;99.90;;;;;;5083865;28;20042;-71
2023/03/24 11:42:00;;;;;;;3.25;1.45;;;12.30;99.90;;;;;;5074577;28;20096;-71
2023/03/24 11:44:37;;;;;;;4.88;0.45;;;12.40;99.90;;;;;;5077236;28;20489;-70
2023/03/24 11:47:31;;;;;;;3.38;0.55;;;12.40;99.90;;;;;;5081376;28;20043;-71
2023/03/24 11:50:09;;;;;;;3.92;0.75;;;12.40;99.90;;;;;;5079376;28;20077;-71
2023/03/24 11:52:48;;;;;;;4.97;0.98;;;12.40;99.90;;;;;;5113054;27;20047;-71
2023/03/24 11:55:17;;;;;;;7.43;1.00;;;12.40;99.90;;;;;;5079562;28;20039;-71
2023/03/24 11:58:01;;;;;;;1.90;0.52;;;12.50;99.90;;;;;;5079632;28;20044;-70
2023/03/24 12:00:31;;;;;;;8.10;1.30;;;12.50;99.90;;;;;;5073427;28;20405;-70
2023/03/24 12:02:59;;;;;;;2.42;0.60;;;12.60;99.90;;;;;;5055139;28;20036;-70
2023/03/24 12:05:38;;;;;;;2.05;0.68;;;12.60;99.90;;;;;;5082307;28;20127;-71
2023/03/24 12:08:12;;;;;;;3.25;0.70;;;12.60;99.90;;;;;;5074305;28;20040;-70
2023/03/24 12:10:54;;;;;;;5.95;0.75;;;12.60;99.90;;;;;;5055436;28;20070;-70
2023/03/24 12:13:37;;;;;;;3.47;0.63;;;12.70;99.90;;;;;;5074075;28;20051;-71
2023/03/24 12:16:25;;;;;;;4.63;1.40;;;12.70;99.90;;;;;;5076036;28;20040;-70
2023/03/24 12:19:18;;;;;;;2.63;0.68;;;12.70;99.90;;;;;;5068255;28;20036;-70
2023/03/24 12:22:02;;;;;;;3.45;0.70;;;12.70;99.90;;;;;;5081180;28;20050;-70
2023/03/24 12:24:39;;;;;;;3.38;1.05;;;12.70;99.90;;;;;;5073596;28;20082;-70
2023/03/24 12:27:24;;;;;;;6.75;0.82;;;12.80;99.90;;;;;;5078409;28;20166;-71
2023/03/24 12:30:01;;;;;;;3.05;0.68;;;12.80;99.90;;;;;;5077836;28;20320;-71
2023/03/24 12:32:53;;;;;;;4.05;0.80;;;12.90;99.90;;;;;;5107918;27;20051;-71
2023/03/24 12:35:31;;;;;;;4.97;0.68;;;12.90;99.90;;;;;;5067626;28;20534;-71
2023/03/24 12:38:19;;;;;;;5.63;0.90;;;12.90;99.90;;;;;;5070966;28;20402;-70
2023/03/24 12:41:12;;;;;;;2.10;0.60;;;12.90;99.90;;;;;;5065696;28;20036;-70
2023/03/24 12:43:46;;;;;;;4.90;1.35;;;13.00;99.90;;;;;;5065686;28;20486;-71
2023/03/24 12:46:27;;;;;;;4.70;0.63;;;12.90;99.90;;;;;;5069346;28;20048;-71
2023/03/24 12:49:07;;;;;;;4.13;0.68;;;12.80;99.90;;;;;;5066648;28;20044;-70
2023/03/24 12:51:45;;;;;;;4.90;0.93;;;12.70;99.90;;;;;;5051532;28;20040;-70
2023/03/24 12:54:49;;;;;;;2.55;1.00;;;12.70;99.90;;;;;;5067615;28;20112;-70
2023/03/24 12:57:20;;;;;;;1.92;0.75;;;12.70;99.90;;;;;;5054237;28;20544;-71
2023/03/24 12:59:56;;;;;;;3.83;1.00;;;12.70;99.90;;;;;;5073936;28;20071;-71
2023/03/24 13:02:55;;;;;;;2.40;0.60;;;12.70;99.90;;;;;;5068337;28;20037;-70
2023/03/24 13:05:29;;;;;;;6.30;0.52;;;12.80;99.90;;;;;;5090600;28;20050;-70
2023/03/24 13:08:01;;;;;;;1.13;0.30;;;12.80;99.90;;;;;;5068796;28;20052;-71
2023/03/24 13:10:29;;;;;;;2.63;0.65;;;12.90;99.90;;;;;;5073771;28;20765;-71
2023/03/24 13:13:01;;;;;;;3.55;0.63;;;13.00;99.90;;;;;;5093378;28;20159;-70
2023/03/24 13:15:35;;;;;;;5.40;0.75;;;13.00;99.90;;;;;;5066096;28;20456;-71